Time;durP1;ratioP1;P1;durP2;ratioP2;P2;SDS_P1;SDS_P2;PMS_P1;PMS_P2;Temp;Humidity;BMP_temperature;BMP_pressure;BME280_temperature;BME280_humidity;BME280_pressure;Samples;Min_cycle;Max_cycle;Signal;HPM_P1;HPM_P2
2024/04/14 00:00:58;;;;;;;1999.90;999.90;;;;;;;;;;5476262;26;20198;-79
2024/04/14 00:03:26;;;;;;;1999.90;999.90;;;;;;;;;;5482880;26;20082;-79
2024/04/14 00:05:52;;;;;;;1999.90;999.90;;;;;;;;;;5485178;26;20016;-79
2024/04/14 00:08:20;;;;;;;1999.90;999.90;;;;;;;;;;5484436;26;20421;-79
2024/04/14 00:10:46;;;;;;;1999.90;999.90;;;;;;;;;;5483394;26;20087;-80
2024/04/14 00:13:17;;;;;;;1999.90;999.90;;;;;;;;;;5486730;26;20358;-80
2024/04/14 00:15:42;;;;;;;1999.90;999.90;;;;;;;;;;5496795;26;20005;-79
2024/04/14 00:18:11;;;;;;;1999.90;999.90;;;;;;;;;;5496169;26;20639;-77
2024/04/14 00:20:36;;;;;;;1999.90;999.90;;;;;;;;;;5458591;26;20017;-79
2024/04/14 00:23:05;;;;;;;1999.90;999.90;;;;;;;;;;5489172;26;20002;-78
2024/04/14 00:25:32;;;;;;;1999.90;999.90;;;;;;;;;;5476935;26;20409;-79
2024/04/14 00:28:00;;;;;;;1999.90;999.90;;;;;;;;;;5481163;26;20002;-79
2024/04/14 00:30:29;;;;;;;1999.90;999.90;;;;;;;;;;5474942;26;20032;-79
2024/04/14 00:32:57;;;;;;;1999.90;999.90;;;;;;;;;;5447466;26;20083;-79
2024/04/14 00:35:25;;;;;;;1999.90;999.90;;;;;;;;;;5446078;26;20440;-79
2024/04/14 00:37:53;;;;;;;1999.90;999.90;;;;;;;;;;5482466;26;20002;-78
2024/04/14 00:40:19;;;;;;;1999.90;999.90;;;;;;;;;;5484459;26;20023;-79
2024/04/14 00:42:48;;;;;;;1999.90;999.90;;;;;;;;;;5484371;26;19998;-79
2024/04/14 00:45:13;;;;;;;1999.90;999.90;;;;;;;;;;5483699;26;20103;-79
2024/04/14 00:47:45;;;;;;;1999.90;999.90;;;;;;;;;;5483698;26;20018;-79
2024/04/14 00:50:10;;;;;;;1999.90;999.90;;;;;;;;;;5479698;26;19999;-79
2024/04/14 00:52:39;;;;;;;1999.90;999.90;;;;;;;;;;5483904;26;20002;-79
2024/04/14 00:55:06;;;;;;;1999.90;999.90;;;;;;;;;;5482656;26;20046;-79
2024/04/14 00:57:35;;;;;;;1999.90;999.90;;;;;;;;;;5483853;26;20396;-80
2024/04/14 01:00:01;;;;;;;1999.90;999.90;;;;;;;;;;5483623;26;20009;-79
2024/04/14 01:02:30;;;;;;;1999.90;999.90;;;;;;;;;;5484385;26;20002;-79
2024/04/14 01:04:58;;;;;;;1999.90;999.90;;;;;;;;;;5483612;26;20328;-79
2024/04/14 01:07:27;;;;;;;1999.90;999.90;;;;;;;;;;5481441;26;20094;-79
2024/04/14 01:09:52;;;;;;;1999.90;999.90;;;;;;;;;;5480995;26;20137;-79
2024/04/14 01:12:30;;;;;;;1999.90;999.90;;;;;;;;;;5483395;26;20010;-79
2024/04/14 01:14:56;;;;;;;1999.90;999.90;;;;;;;;;;5483282;26;20007;-79
2024/04/14 01:17:24;;;;;;;1999.90;999.90;;;;;;;;;;5483144;26;20520;-80
2024/04/14 01:19:49;;;;;;;1999.90;999.90;;;;;;;;;;5481547;26;20087;-79
2024/04/14 01:22:20;;;;;;;1999.90;999.90;;;;;;;;;;5479545;26;20010;-79
2024/04/14 01:24:46;;;;;;;1999.90;999.90;;;;;;;;;;5482664;26;20002;-80
2024/04/14 01:27:17;;;;;;;1999.90;999.90;;;;;;;;;;5482305;26;20854;-80
2024/04/14 01:29:43;;;;;;;1999.90;999.90;;;;;;;;;;5482783;26;20002;-80
2024/04/14 01:32:11;;;;;;;1999.90;999.90;;;;;;;;;;5448444;26;20003;-80
2024/04/14 01:34:36;;;;;;;1999.90;999.90;;;;;;;;;;5447455;26;20087;-80
2024/04/14 01:37:05;;;;;;;1999.90;999.90;;;;;;;;;;5441678;26;20010;-80
2024/04/14 01:39:31;;;;;;;1999.90;999.90;;;;;;;;;;5444337;26;19998;-80
2024/04/14 01:41:59;;;;;;;1999.90;999.90;;;;;;;;;;5443840;26;20003;-79
2024/04/14 01:44:27;;;;;;;1999.90;999.90;;;;;;;;;;5446200;26;20023;-79
2024/04/14 01:46:56;;;;;;;1999.90;999.90;;;;;;;;;;5442176;26;20848;-80
2024/04/14 01:49:22;;;;;;;1999.90;999.90;;;;;;;;;;5440953;26;20013;-79
2024/04/14 01:51:50;;;;;;;1999.90;999.90;;;;;;;;;;5444090;26;20055;-79
2024/04/14 01:54:16;;;;;;;1999.90;999.90;;;;;;;;;;5442995;26;20039;-79
2024/04/14 01:56:44;;;;;;;1999.90;999.90;;;;;;;;;;5443479;26;20060;-79
2024/04/14 01:59:09;;;;;;;1999.90;999.90;;;;;;;;;;5445984;26;20500;-79
2024/04/14 02:01:40;;;;;;;1999.90;999.90;;;;;;;;;;5448311;26;20095;-79
2024/04/14 02:04:06;;;;;;;1999.90;999.90;;;;;;;;;;5447822;26;20097;-80
2024/04/14 02:06:34;;;;;;;1999.90;999.90;;;;;;;;;;5443160;26;20007;-80
2024/04/14 02:08:59;;;;;;;1999.90;999.90;;;;;;;;;;5447471;26;20043;-80
2024/04/14 02:11:28;;;;;;;1999.90;999.90;;;;;;;;;;5448361;26;20512;-80
2024/04/14 02:13:53;;;;;;;1999.90;999.90;;;;;;;;;;5447068;26;20083;-80
2024/04/14 02:16:22;;;;;;;1999.90;999.90;;;;;;;;;;5449745;26;20419;-80
2024/04/14 02:18:50;;;;;;;1999.90;999.90;;;;;;;;;;5447177;26;20010;-80
2024/04/14 02:21:18;;;;;;;1999.90;999.90;;;;;;;;;;5449835;26;20003;-80
2024/04/14 02:23:44;;;;;;;1999.90;999.90;;;;;;;;;;5443440;26;20050;-80
2024/04/14 02:26:12;;;;;;;1999.90;999.90;;;;;;;;;;5448619;26;20080;-80
2024/04/14 02:28:37;;;;;;;1999.90;999.90;;;;;;;;;;5448636;26;20403;-80
2024/04/14 02:31:06;;;;;;;1999.90;999.90;;;;;;;;;;5463763;25;20009;-80
2024/04/14 02:33:32;;;;;;;1999.90;999.90;;;;;;;;;;5485905;26;19998;-81
2024/04/14 02:36:03;;;;;;;1999.90;999.90;;;;;;;;;;5484744;26;20006;-80
2024/04/14 02:38:29;;;;;;;1999.90;999.90;;;;;;;;;;5483134;26;20092;-80
2024/04/14 02:40:59;;;;;;;1999.90;999.90;;;;;;;;;;5482114;26;20442;-79
2024/04/14 02:43:25;;;;;;;1999.90;999.90;;;;;;;;;;5485918;26;19998;-79
2024/04/14 02:45:53;;;;;;;1999.90;999.90;;;;;;;;;;5483126;26;19998;-79
2024/04/14 02:48:19;;;;;;;1999.90;999.90;;;;;;;;;;5483926;26;20046;-79
2024/04/14 02:50:47;;;;;;;1999.90;999.90;;;;;;;;;;5483209;26;20524;-80
2024/04/14 02:53:16;;;;;;;1999.90;999.90;;;;;;;;;;5484463;26;20034;-79
2024/04/14 02:55:45;;;;;;;1999.90;999.90;;;;;;;;;;5477799;26;20448;-79
2024/04/14 02:58:10;;;;;;;1999.90;999.90;;;;;;;;;;5482895;26;20074;-80
2024/04/14 03:00:39;;;;;;;1999.90;999.90;;;;;;;;;;5484420;26;20009;-80
2024/04/14 03:03:05;;;;;;;1999.90;999.90;;;;;;;;;;5481891;26;20066;-80
2024/04/14 03:05:33;;;;;;;1999.90;999.90;;;;;;;;;;5482956;26;20459;-80
2024/04/14 03:07:59;;;;;;;1999.90;999.90;;;;;;;;;;5484720;26;20030;-80
2024/04/14 03:10:29;;;;;;;1999.90;999.90;;;;;;;;;;5482717;26;20006;-79
2024/04/14 03:12:55;;;;;;;1999.90;999.90;;;;;;;;;;5476049;26;20097;-79
2024/04/14 03:15:23;;;;;;;1999.90;999.90;;;;;;;;;;5484471;26;20400;-79
2024/04/14 03:17:49;;;;;;;1999.90;999.90;;;;;;;;;;5482423;26;20014;-79
2024/04/14 03:20:17;;;;;;;1999.90;999.90;;;;;;;;;;5482829;26;20468;-80
2024/04/14 03:22:43;;;;;;;1999.90;999.90;;;;;;;;;;5483720;26;19998;-80
2024/04/14 03:25:11;;;;;;;1999.90;999.90;;;;;;;;;;5482328;26;20016;-80
2024/04/14 03:27:39;;;;;;;1999.90;999.90;;;;;;;;;;5477893;26;20017;-80
2024/04/14 03:30:09;;;;;;;1999.90;999.90;;;;;;;;;;5483391;26;20546;-80
2024/04/14 03:32:34;;;;;;;1999.90;999.90;;;;;;;;;;5484314;26;20013;-80
2024/04/14 03:35:02;;;;;;;1999.90;999.90;;;;;;;;;;5483486;26;20395;-80
2024/04/14 03:37:30;;;;;;;1999.90;999.90;;;;;;;;;;5481327;26;20013;-80
2024/04/14 03:39:59;;;;;;;1999.90;999.90;;;;;;;;;;5485056;26;20020;-80
2024/04/14 03:42:34;;;;;;;1999.90;999.90;;;;;;;;;;5483532;26;20082;-79
2024/04/14 03:45:07;;;;;;;1999.90;999.90;;;;;;;;;;5470169;26;20045;-80
2024/04/14 03:47:36;;;;;;;1999.90;999.90;;;;;;;;;;5483142;26;20102;-79
2024/04/14 03:50:01;;;;;;;1999.90;999.90;;;;;;;;;;5484043;26;20018;-80
2024/04/14 03:52:30;;;;;;;1999.90;999.90;;;;;;;;;;5484014;26;20086;-80
2024/04/14 03:54:58;;;;;;;1999.90;999.90;;;;;;;;;;5481747;26;20085;-80
2024/04/14 03:57:23;;;;;;;1999.90;999.90;;;;;;;;;;5480305;26;20025;-80
2024/04/14 03:59:51;;;;;;;1999.90;999.90;;;;;;;;;;5483735;26;20006;-80
2024/04/14 04:02:20;;;;;;;1999.90;999.90;;;;;;;;;;5482616;26;20042;-80
2024/04/14 04:04:48;;;;;;;1999.90;999.90;;;;;;;;;;5478314;26;20009;-80
2024/04/14 04:07:13;;;;;;;1999.90;999.90;;;;;;;;;;5478859;26;20035;-80
2024/04/14 04:09:42;;;;;;;1999.90;999.90;;;;;;;;;;5483504;26;20078;-81
2024/04/14 04:12:08;;;;;;;1999.90;999.90;;;;;;;;;;5483278;26;20002;-80
2024/04/14 04:14:36;;;;;;;1999.90;999.90;;;;;;;;;;5481594;26;20475;-80
2024/04/14 04:17:02;;;;;;;1999.90;999.90;;;;;;;;;;5478017;26;20046;-81
2024/04/14 04:19:33;;;;;;;1999.90;999.90;;;;;;;;;;5482116;26;20078;-80
2024/04/14 04:22:01;;;;;;;1999.90;999.90;;;;;;;;;;5481170;26;20016;-80
2024/04/14 04:24:27;;;;;;;1999.90;999.90;;;;;;;;;;5482199;26;20038;-81
2024/04/14 04:26:55;;;;;;;1999.90;999.90;;;;;;;;;;5478371;26;20005;-80
2024/04/14 04:29:24;;;;;;;1999.90;999.90;;;;;;;;;;5480003;26;20006;-80
2024/04/14 04:31:53;;;;;;;1999.90;999.90;;;;;;;;;;5482917;26;20017;-80
2024/04/14 04:34:18;;;;;;;1999.90;999.90;;;;;;;;;;5480401;26;20058;-80
2024/04/14 04:36:50;;;;;;;1999.90;999.90;;;;;;;;;;5482743;26;20579;-81
2024/04/14 04:39:15;;;;;;;1999.90;999.90;;;;;;;;;;5483186;26;19998;-81
2024/04/14 04:41:44;;;;;;;1999.90;999.90;;;;;;;;;;5481743;26;19998;-80
2024/04/14 04:44:10;;;;;;;1999.90;999.90;;;;;;;;;;5482851;26;19994;-80
2024/04/14 04:46:38;;;;;;;1999.90;999.90;;;;;;;;;;5483945;26;20017;-81
2024/04/14 04:49:04;;;;;;;1999.90;999.90;;;;;;;;;;5482883;26;20009;-80
2024/04/14 04:51:32;;;;;;;1999.90;999.90;;;;;;;;;;5481856;26;19998;-80
2024/04/14 04:54:00;;;;;;;1999.90;999.90;;;;;;;;;;5482398;26;20429;-80
2024/04/14 04:56:29;;;;;;;1999.90;999.90;;;;;;;;;;5475645;26;20014;-80
2024/04/14 04:58:55;;;;;;;1999.90;999.90;;;;;;;;;;5483449;26;20042;-80
2024/04/14 05:01:23;;;;;;;1999.90;999.90;;;;;;;;;;5483179;26;20002;-81
2024/04/14 05:03:50;;;;;;;1999.90;999.90;;;;;;;;;;5480830;26;20477;-80
2024/04/14 05:06:18;;;;;;;1999.90;999.90;;;;;;;;;;5482651;26;20359;-81
2024/04/14 05:08:44;;;;;;;1999.90;999.90;;;;;;;;;;5480899;26;20042;-81
2024/04/14 05:11:14;;;;;;;1999.90;999.90;;;;;;;;;;5478681;26;20085;-80
2024/04/14 05:13:46;;;;;;;1999.90;999.90;;;;;;;;;;5478761;26;20006;-80
2024/04/14 05:16:14;;;;;;;1999.90;999.90;;;;;;;;;;5478950;26;20010;-81
2024/04/14 05:18:40;;;;;;;1999.90;999.90;;;;;;;;;;5481400;26;20030;-80
2024/04/14 05:21:08;;;;;;;1999.90;999.90;;;;;;;;;;5481005;26;20087;-81
2024/04/14 05:23:34;;;;;;;1999.90;999.90;;;;;;;;;;5483482;26;20017;-80
2024/04/14 05:26:02;;;;;;;1999.90;999.90;;;;;;;;;;5482152;26;20355;-80
2024/04/14 05:28:31;;;;;;;1999.90;999.90;;;;;;;;;;5481760;26;20128;-80
2024/04/14 05:30:59;;;;;;;1999.90;999.90;;;;;;;;;;5478068;26;20070;-82
2024/04/14 05:33:24;;;;;;;1999.90;999.90;;;;;;;;;;5480124;26;19998;-82
2024/04/14 05:35:57;;;;;;;1999.90;999.90;;;;;;;;;;5483767;26;20345;-81
2024/04/14 05:38:22;;;;;;;1999.90;999.90;;;;;;;;;;5487038;26;20002;-80
2024/04/14 05:40:50;;;;;;;1999.90;999.90;;;;;;;;;;5484684;26;20006;-81
2024/04/14 05:43:16;;;;;;;1999.90;999.90;;;;;;;;;;5482336;26;20518;-81
2024/04/14 05:45:47;;;;;;;1999.90;999.90;;;;;;;;;;5485050;26;20012;-81
2024/04/14 05:48:13;;;;;;;1999.90;999.90;;;;;;;;;;5485040;26;20472;-82
2024/04/14 05:50:42;;;;;;;1999.90;999.90;;;;;;;;;;5478299;26;20003;-82
2024/04/14 05:53:07;;;;;;;1999.90;999.90;;;;;;;;;;5485104;26;20050;-82
2024/04/14 05:55:35;;;;;;;1999.90;999.90;;;;;;;;;;5484714;26;19998;-82
2024/04/14 05:58:01;;;;;;;1999.90;999.90;;;;;;;;;;5484305;26;20007;-83
2024/04/14 06:00:32;;;;;;;1999.90;999.90;;;;;;;;;;5484950;26;20006;-82
2024/04/14 06:03:00;;;;;;;1999.90;999.90;;;;;;;;;;5485157;26;20050;-82
2024/04/14 06:05:29;;;;;;;1999.90;999.90;;;;;;;;;;5482485;26;20002;-82
2024/04/14 06:07:54;;;;;;;1999.90;999.90;;;;;;;;;;5483158;26;19994;-82
2024/04/14 06:10:23;;;;;;;1999.90;999.90;;;;;;;;;;5485754;26;20006;-82
2024/04/14 06:12:49;;;;;;;1999.90;999.90;;;;;;;;;;5482856;26;20070;-83
2024/04/14 06:15:17;;;;;;;1999.90;999.90;;;;;;;;;;5482980;26;20456;-83
2024/04/14 06:17:42;;;;;;;1999.90;999.90;;;;;;;;;;5481585;26;20082;-82
2024/04/14 06:20:13;;;;;;;1999.90;999.90;;;;;;;;;;5484550;26;20417;-83
2024/04/14 06:22:39;;;;;;;1999.90;999.90;;;;;;;;;;5484095;26;20010;-83
2024/04/14 06:25:07;;;;;;;1999.90;999.90;;;;;;;;;;5483074;26;20002;-83
2024/04/14 06:27:33;;;;;;;1999.90;999.90;;;;;;;;;;5484479;26;20095;-83
2024/04/14 06:30:01;;;;;;;1999.90;999.90;;;;;;;;;;5482670;26;20383;-83
2024/04/14 06:32:27;;;;;;;1999.90;999.90;;;;;;;;;;5485631;26;20019;-83
2024/04/14 06:34:55;;;;;;;1999.90;999.90;;;;;;;;;;5478958;26;19994;-82
2024/04/14 06:37:23;;;;;;;1999.90;999.90;;;;;;;;;;5484341;26;19998;-81
2024/04/14 06:39:52;;;;;;;1999.90;999.90;;;;;;;;;;5485868;26;20042;-80
2024/04/14 06:42:17;;;;;;;1999.90;999.90;;;;;;;;;;5483207;26;20011;-80
2024/04/14 06:44:45;;;;;;;1999.90;999.90;;;;;;;;;;5484739;26;20767;-80
2024/04/14 06:47:11;;;;;;;1999.90;999.90;;;;;;;;;;5481833;26;20010;-80
2024/04/14 06:49:39;;;;;;;1999.90;999.90;;;;;;;;;;5485427;26;19998;-81
2024/04/14 06:52:05;;;;;;;1999.90;999.90;;;;;;;;;;5481674;26;20034;-80
2024/04/14 06:54:36;;;;;;;1999.90;999.90;;;;;;;;;;5479285;26;20340;-80
2024/04/14 06:57:02;;;;;;;1999.90;999.90;;;;;;;;;;5481599;26;20562;-82
2024/04/14 06:59:30;;;;;;;1999.90;999.90;;;;;;;;;;5483294;26;20013;-81
2024/04/14 07:01:55;;;;;;;1999.90;999.90;;;;;;;;;;5481670;26;20009;-81
2024/04/14 07:04:24;;;;;;;1999.90;999.90;;;;;;;;;;5484538;26;20082;-81
2024/04/14 07:06:49;;;;;;;1999.90;999.90;;;;;;;;;;5485767;26;20038;-80
2024/04/14 07:09:17;;;;;;;1999.90;999.90;;;;;;;;;;5484200;26;20074;-80
2024/04/14 07:11:52;;;;;;;1999.90;999.90;;;;;;;;;;5481518;26;20398;-80
2024/04/14 07:14:20;;;;;;;1999.90;999.90;;;;;;;;;;5477909;26;20046;-80
2024/04/14 07:16:46;;;;;;;1999.90;999.90;;;;;;;;;;5478971;26;20002;-79
2024/04/14 07:19:14;;;;;;;1999.90;999.90;;;;;;;;;;5484235;26;20002;-80
2024/04/14 07:21:40;;;;;;;1999.90;999.90;;;;;;;;;;5474802;26;20006;-80
2024/04/14 07:24:08;;;;;;;1999.90;999.90;;;;;;;;;;5478552;26;20542;-80
2024/04/14 07:26:34;;;;;;;1999.90;999.90;;;;;;;;;;5482712;26;20010;-80
2024/04/14 07:29:04;;;;;;;1999.90;999.90;;;;;;;;;;5483064;26;20017;-79
2024/04/14 07:31:30;;;;;;;1999.90;999.90;;;;;;;;;;5484774;26;20042;-80
2024/04/14 07:34:00;;;;;;;1999.90;999.90;;;;;;;;;;5476299;26;20077;-78
2024/04/14 07:36:26;;;;;;;1999.90;999.90;;;;;;;;;;5484426;26;20088;-78
2024/04/14 07:38:54;;;;;;;1999.90;999.90;;;;;;;;;;5484791;26;20010;-78
2024/04/14 07:41:20;;;;;;;1999.90;999.90;;;;;;;;;;5481901;26;20544;-78
2024/04/14 07:43:48;;;;;;;1999.90;999.90;;;;;;;;;;5483003;26;20010;-79
2024/04/14 07:46:16;;;;;;;1999.90;999.90;;;;;;;;;;5481176;26;20016;-81
2024/04/14 07:48:45;;;;;;;1999.90;999.90;;;;;;;;;;5480050;26;19998;-82
2024/04/14 07:51:11;;;;;;;1999.90;999.90;;;;;;;;;;5483679;26;19998;-82
2024/04/14 07:53:39;;;;;;;1999.90;999.90;;;;;;;;;;5477752;26;20884;-82
2024/04/14 07:56:05;;;;;;;1999.90;999.90;;;;;;;;;;5479244;26;20010;-81
2024/04/14 07:58:34;;;;;;;1999.90;999.90;;;;;;;;;;5481938;26;19998;-81
2024/04/14 08:00:59;;;;;;;1999.90;999.90;;;;;;;;;;5481684;26;20020;-80
2024/04/14 08:03:30;;;;;;;1999.90;999.90;;;;;;;;;;5479164;26;19998;-80
2024/04/14 08:05:56;;;;;;;1999.90;999.90;;;;;;;;;;5481491;26;20026;-80
2024/04/14 08:08:24;;;;;;;1999.90;999.90;;;;;;;;;;5485499;26;20079;-80
2024/04/14 08:10:49;;;;;;;1999.90;999.90;;;;;;;;;;5483590;26;20002;-80
2024/04/14 08:13:17;;;;;;;1999.90;999.90;;;;;;;;;;5480706;26;20344;-81
2024/04/14 08:15:43;;;;;;;1999.90;999.90;;;;;;;;;;5483921;26;20013;-80
2024/04/14 08:18:11;;;;;;;1999.90;999.90;;;;;;;;;;5479924;26;20393;-81
2024/04/14 08:20:40;;;;;;;1999.90;999.90;;;;;;;;;;5485555;26;20013;-81
2024/04/14 08:23:08;;;;;;;1999.90;999.90;;;;;;;;;;5478981;26;19995;-79
2024/04/14 08:25:38;;;;;;;1999.90;999.90;;;;;;;;;;5482781;26;20029;-79
2024/04/14 08:28:06;;;;;;;1999.90;999.90;;;;;;;;;;5481088;26;20017;-77
2024/04/14 08:30:32;;;;;;;1999.90;999.90;;;;;;;;;;5477477;26;20026;-78
2024/04/14 08:33:00;;;;;;;1999.90;999.90;;;;;;;;;;5482324;26;20849;-79
2024/04/14 08:35:26;;;;;;;1999.90;999.90;;;;;;;;;;5482053;26;19998;-78
2024/04/14 08:37:57;;;;;;;1999.90;999.90;;;;;;;;;;5479626;26;20002;-79
2024/04/14 08:40:23;;;;;;;1999.90;999.90;;;;;;;;;;5482663;26;20017;-78
2024/04/14 08:42:52;;;;;;;1999.90;999.90;;;;;;;;;;5483512;26;19998;-78
2024/04/14 08:45:22;;;;;;;1999.90;999.90;;;;;;;;;;5481424;26;20013;-79
2024/04/14 08:47:52;;;;;;;1999.90;999.90;;;;;;;;;;5482299;26;20002;-77
2024/04/14 08:50:20;;;;;;;1999.90;999.90;;;;;;;;;;5478824;26;20016;-76
2024/04/14 08:52:48;;;;;;;1999.90;999.90;;;;;;;;;;5483072;26;20010;-77
2024/04/14 08:55:16;;;;;;;1999.90;999.90;;;;;;;;;;5484467;26;20768;-77
2024/04/14 08:57:45;;;;;;;1999.90;999.90;;;;;;;;;;5481488;26;20032;-79
2024/04/14 09:00:12;;;;;;;1999.90;999.90;;;;;;;;;;5479429;26;20014;-79
2024/04/14 09:02:42;;;;;;;1999.90;999.90;;;;;;;;;;5480515;26;20018;-78
2024/04/14 09:05:08;;;;;;;1999.90;999.90;;;;;;;;;;5483347;26;20071;-77
2024/04/14 09:07:36;;;;;;;1999.90;999.90;;;;;;;;;;5481286;26;20621;-77
2024/04/14 09:10:01;;;;;;;1999.90;999.90;;;;;;;;;;5480059;26;20030;-77
2024/04/14 09:12:33;;;;;;;1999.90;999.90;;;;;;;;;;5482039;26;20074;-78
2024/04/14 09:14:59;;;;;;;1999.90;999.90;;;;;;;;;;5482836;26;20037;-78
2024/04/14 09:17:27;;;;;;;1999.90;999.90;;;;;;;;;;5483029;26;20078;-77
2024/04/14 09:19:52;;;;;;;1999.90;999.90;;;;;;;;;;5480491;26;20796;-80
2024/04/14 09:22:20;;;;;;;1999.90;999.90;;;;;;;;;;5482296;26;20087;-80
2024/04/14 09:24:46;;;;;;;1999.90;999.90;;;;;;;;;;5481387;26;20045;-81
2024/04/14 09:27:14;;;;;;;1999.90;999.90;;;;;;;;;;5484027;26;19998;-80
2024/04/14 09:29:42;;;;;;;1999.90;999.90;;;;;;;;;;5481703;26;20080;-80
2024/04/14 09:32:11;;;;;;;1999.90;999.90;;;;;;;;;;5479602;26;20047;-81
2024/04/14 09:34:37;;;;;;;1999.90;999.90;;;;;;;;;;5480456;26;20012;-81
2024/04/14 09:37:07;;;;;;;1999.90;999.90;;;;;;;;;;5484309;26;20002;-80
2024/04/14 09:39:34;;;;;;;1999.90;999.90;;;;;;;;;;5482105;26;20002;-80
2024/04/14 09:42:03;;;;;;;1999.90;999.90;;;;;;;;;;5484690;26;20002;-79
2024/04/14 09:44:30;;;;;;;1999.90;999.90;;;;;;;;;;5485257;26;20048;-80
2024/04/14 09:47:02;;;;;;;1999.90;999.90;;;;;;;;;;5484208;26;20034;-80
2024/04/14 09:49:31;;;;;;;1999.90;999.90;;;;;;;;;;5484138;26;19998;-81
2024/04/14 09:52:01;;;;;;;1999.90;999.90;;;;;;;;;;5480743;26;20489;-80
2024/04/14 09:54:28;;;;;;;1999.90;999.90;;;;;;;;;;5483916;26;20500;-80
2024/04/14 09:56:56;;;;;;;1999.90;999.90;;;;;;;;;;5483242;26;20006;-78
2024/04/14 09:59:22;;;;;;;1999.90;999.90;;;;;;;;;;5483548;26;20037;-77
2024/04/14 10:01:52;;;;;;;1999.90;999.90;;;;;;;;;;5483492;26;20070;-77
2024/04/14 10:04:21;;;;;;;1999.90;999.90;;;;;;;;;;5483329;26;20492;-78
2024/04/14 10:06:50;;;;;;;1999.90;999.90;;;;;;;;;;5482013;26;20014;-78
2024/04/14 10:09:16;;;;;;;1999.90;999.90;;;;;;;;;;5482465;26;20092;-79
2024/04/14 10:11:46;;;;;;;1999.90;999.90;;;;;;;;;;5481726;26;20084;-78
2024/04/14 10:14:12;;;;;;;1999.90;999.90;;;;;;;;;;5483039;26;20016;-77
2024/04/14 10:16:40;;;;;;;1999.90;999.90;;;;;;;;;;5482698;26;20076;-79
2024/04/14 10:19:07;;;;;;;1999.90;999.90;;;;;;;;;;5482518;26;20005;-77
2024/04/14 10:21:37;;;;;;;1999.90;999.90;;;;;;;;;;5485590;26;20009;-78
2024/04/14 10:24:10;;;;;;;1999.90;999.90;;;;;;;;;;5485996;26;20913;-77
2024/04/14 10:26:38;;;;;;;1999.90;999.90;;;;;;;;;;5486281;26;19998;-77
2024/04/14 10:29:06;;;;;;;1999.90;999.90;;;;;;;;;;5486341;26;20033;-78
2024/04/14 10:31:36;;;;;;;1999.90;999.90;;;;;;;;;;5481619;26;20078;-77
2024/04/14 10:34:04;;;;;;;1999.90;999.90;;;;;;;;;;5483443;26;20009;-78
2024/04/14 10:36:32;;;;;;;1999.90;999.90;;;;;;;;;;5485089;26;20377;-77
2024/04/14 10:39:01;;;;;;;1999.90;999.90;;;;;;;;;;5483650;26;20001;-78
2024/04/14 10:41:30;;;;;;;1999.90;999.90;;;;;;;;;;5482362;26;20531;-77
2024/04/14 10:43:56;;;;;;;1999.90;999.90;;;;;;;;;;5479784;26;20002;-78
2024/04/14 10:46:24;;;;;;;1999.90;999.90;;;;;;;;;;5483422;26;20405;-77
2024/04/14 10:48:50;;;;;;;1999.90;999.90;;;;;;;;;;5483463;26;20010;-77
2024/04/14 10:51:18;;;;;;;1999.90;999.90;;;;;;;;;;5482801;26;20071;-78
2024/04/14 10:53:44;;;;;;;1999.90;999.90;;;;;;;;;;5485182;26;20002;-80
2024/04/14 10:56:14;;;;;;;1999.90;999.90;;;;;;;;;;5484026;26;20010;-78
2024/04/14 10:58:40;;;;;;;1999.90;999.90;;;;;;;;;;5483859;26;20010;-78
2024/04/14 11:01:08;;;;;;;1999.90;999.90;;;;;;;;;;5483417;26;20002;-78
2024/04/14 11:03:34;;;;;;;1999.90;999.90;;;;;;;;;;5480844;26;20010;-78
2024/04/14 11:06:03;;;;;;;1999.90;999.90;;;;;;;;;;5480841;26;20413;-80
2024/04/14 11:08:29;;;;;;;1999.90;999.90;;;;;;;;;;5479893;26;20002;-80
2024/04/14 11:10:58;;;;;;;1999.90;999.90;;;;;;;;;;5485207;26;20008;-79
2024/04/14 11:13:30;;;;;;;1999.90;999.90;;;;;;;;;;5482989;26;19998;-81
2024/04/14 11:15:59;;;;;;;1999.90;999.90;;;;;;;;;;5485669;26;20042;-79
2024/04/14 11:18:26;;;;;;;1999.90;999.90;;;;;;;;;;5483810;26;20479;-81
2024/04/14 11:20:54;;;;;;;1999.90;999.90;;;;;;;;;;5482676;26;20017;-80
2024/04/14 11:23:21;;;;;;;1999.90;999.90;;;;;;;;;;5484811;26;20467;-80
2024/04/14 11:25:49;;;;;;;1999.90;999.90;;;;;;;;;;5484282;26;20002;-77
2024/04/14 11:28:15;;;;;;;1999.90;999.90;;;;;;;;;;5481857;26;20014;-79
2024/04/14 11:30:46;;;;;;;1999.90;999.90;;;;;;;;;;5474886;26;19999;-81
2024/04/14 11:33:11;;;;;;;1999.90;999.90;;;;;;;;;;5446733;26;20101;-81
2024/04/14 11:35:41;;;;;;;1999.90;999.90;;;;;;;;;;5445957;26;20011;-80
2024/04/14 11:38:06;;;;;;;1999.90;999.90;;;;;;;;;;5447482;26;20018;-80
2024/04/14 11:40:35;;;;;;;1999.90;999.90;;;;;;;;;;5449153;26;20473;-80
2024/04/14 11:43:00;;;;;;;1999.90;999.90;;;;;;;;;;5445718;26;20040;-79
2024/04/14 11:45:28;;;;;;;1999.90;999.90;;;;;;;;;;5444689;26;20461;-80
2024/04/14 11:47:57;;;;;;;1999.90;999.90;;;;;;;;;;5446863;26;20018;-80
2024/04/14 11:50:25;;;;;;;1999.90;999.90;;;;;;;;;;5446713;26;20003;-80
2024/04/14 11:52:50;;;;;;;1999.90;999.90;;;;;;;;;;5446970;26;20091;-79
2024/04/14 11:55:18;;;;;;;1999.90;999.90;;;;;;;;;;5449038;26;20011;-80
2024/04/14 11:57:44;;;;;;;1999.90;999.90;;;;;;;;;;5445061;26;20067;-80
2024/04/14 12:00:13;;;;;;;1999.90;999.90;;;;;;;;;;5446403;26;20014;-80
2024/04/14 12:02:39;;;;;;;1999.90;999.90;;;;;;;;;;5443545;26;20488;-80
2024/04/14 12:05:10;;;;;;;1999.90;999.90;;;;;;;;;;5447933;26;19999;-79
2024/04/14 12:07:36;;;;;;;1999.90;999.90;;;;;;;;;;5442286;26;19999;-79
2024/04/14 12:10:05;;;;;;;1999.90;999.90;;;;;;;;;;5447870;26;20031;-79
2024/04/14 12:12:30;;;;;;;1999.90;999.90;;;;;;;;;;5443959;26;20017;-79
2024/04/14 12:14:59;;;;;;;1999.90;999.90;;;;;;;;;;5448051;26;20015;-79
2024/04/14 12:17:24;;;;;;;1999.90;999.90;;;;;;;;;;5444727;26;20006;-80
2024/04/14 12:19:53;;;;;;;1999.90;999.90;;;;;;;;;;5442802;26;20067;-79
2024/04/14 12:22:21;;;;;;;1999.90;999.90;;;;;;;;;;5444140;26;20047;-80
2024/04/14 12:24:49;;;;;;;1999.90;999.90;;;;;;;;;;5442175;26;20003;-79
2024/04/14 12:27:14;;;;;;;1999.90;999.90;;;;;;;;;;5447289;26;20042;-80
2024/04/14 12:29:43;;;;;;;1999.90;999.90;;;;;;;;;;5448131;26;20341;-80
2024/04/14 12:32:09;;;;;;;1999.90;999.90;;;;;;;;;;5479829;26;20006;-79
2024/04/14 12:34:37;;;;;;;1999.90;999.90;;;;;;;;;;5484047;26;20074;-80
2024/04/14 12:37:03;;;;;;;1999.90;999.90;;;;;;;;;;5484153;26;20556;-81
2024/04/14 12:39:34;;;;;;;1999.90;999.90;;;;;;;;;;5484157;26;20010;-80
2024/04/14 12:42:00;;;;;;;1999.90;999.90;;;;;;;;;;5485425;26;20018;-80
2024/04/14 12:44:28;;;;;;;1999.90;999.90;;;;;;;;;;5483859;26;20002;-80
2024/04/14 12:46:54;;;;;;;1999.90;999.90;;;;;;;;;;5483953;26;20002;-81
2024/04/14 12:49:26;;;;;;;1999.90;999.90;;;;;;;;;;5484094;26;20086;-81
2024/04/14 12:51:52;;;;;;;1999.90;999.90;;;;;;;;;;5484588;26;19998;-80
2024/04/14 12:54:20;;;;;;;1999.90;999.90;;;;;;;;;;5484442;26;20002;-81
2024/04/14 12:56:48;;;;;;;1999.90;999.90;;;;;;;;;;5484273;26;20021;-80
2024/04/14 12:59:17;;;;;;;1999.90;999.90;;;;;;;;;;5484397;26;20017;-81
2024/04/14 13:01:42;;;;;;;1999.90;999.90;;;;;;;;;;5481615;26;20060;-80
2024/04/14 13:04:11;;;;;;;1999.90;999.90;;;;;;;;;;5481882;26;20476;-81
2024/04/14 13:06:36;;;;;;;1999.90;999.90;;;;;;;;;;5483510;26;20038;-81
2024/04/14 13:09:05;;;;;;;1999.90;999.90;;;;;;;;;;5483555;26;20060;-80
2024/04/14 13:11:30;;;;;;;1999.90;999.90;;;;;;;;;;5483588;26;20013;-80
2024/04/14 13:14:01;;;;;;;1999.90;999.90;;;;;;;;;;5483900;26;20010;-81
2024/04/14 13:16:27;;;;;;;1999.90;999.90;;;;;;;;;;5483127;26;19998;-81
2024/04/14 13:18:55;;;;;;;1999.90;999.90;;;;;;;;;;5482209;26;20075;-80
2024/04/14 13:21:21;;;;;;;1999.90;999.90;;;;;;;;;;5479856;26;20013;-82
2024/04/14 13:23:50;;;;;;;1999.90;999.90;;;;;;;;;;5483928;26;20562;-81
2024/04/14 13:26:15;;;;;;;1999.90;999.90;;;;;;;;;;5484327;26;20006;-82
2024/04/14 13:28:43;;;;;;;1999.90;999.90;;;;;;;;;;5483522;26;20537;-81
2024/04/14 13:31:12;;;;;;;1999.90;999.90;;;;;;;;;;5465095;26;20090;-80
2024/04/14 13:33:40;;;;;;;1999.90;999.90;;;;;;;;;;5441978;26;20003;-83
2024/04/14 13:36:06;;;;;;;1999.90;999.90;;;;;;;;;;5440030;26;20007;-80
2024/04/14 13:38:34;;;;;;;1999.90;999.90;;;;;;;;;;5442219;26;20035;-82
2024/04/14 13:41:01;;;;;;;1999.90;999.90;;;;;;;;;;5443130;26;20559;-83
2024/04/14 13:43:29;;;;;;;1999.90;999.90;;;;;;;;;;5447002;26;20078;-82